Time;durP1;ratioP1;P1;durP2;ratioP2;P2;SDS_P1;SDS_P2;PMS_P1;PMS_P2;Temp;Humidity;BMP_temperature;BMP_pressure;BME280_temperature;BME280_humidity;BME280_pressure;Samples;Min_cycle;Max_cycle;Signal;HPM_P1;HPM_P2
2022/07/05 00:00:41;;;;;;;2.33;1.38;;;20.30;95.60;;;;;;4128475;28;20074;-68
2022/07/05 00:02:42;;;;;;;2.03;1.45;;;20.30;96.00;;;;;;4129284;28;20133;-68
2022/07/05 00:04:42;;;;;;;1.55;1.15;;;20.30;96.10;;;;;;4129162;28;20022;-67
2022/07/05 00:09:03;;;;;;;1.13;0.98;;;20.20;96.20;;;;;;4128376;28;20081;-68
2022/07/05 00:11:03;;;;;;;1.10;1.00;;;20.20;95.70;;;;;;4128863;28;20084;-68
2022/07/05 00:13:04;;;;;;;3.10;1.17;;;20.30;95.60;;;;;;4129115;28;20355;-68
2022/07/05 00:15:05;;;;;;;1.60;1.20;;;20.30;95.90;;;;;;4129045;28;20525;-69
2022/07/05 00:17:06;;;;;;;3.30;1.60;;;20.30;96.50;;;;;;4128633;28;20065;-68
2022/07/05 00:19:07;;;;;;;2.15;1.33;;;20.30;96.30;;;;;;4126305;28;20046;-68
2022/07/05 00:21:07;;;;;;;1.02;0.93;;;20.30;96.30;;;;;;4128537;28;20053;-68
2022/07/05 00:23:08;;;;;;;1.80;1.40;;;20.30;96.10;;;;;;4129148;28;20030;-68
2022/07/05 00:25:09;;;;;;;1.38;1.27;;;20.30;96.50;;;;;;4128896;28;20073;-69
2022/07/05 00:27:09;;;;;;;2.20;1.25;;;20.30;96.80;;;;;;4128867;28;20042;-68
2022/07/05 00:29:10;;;;;;;2.00;1.33;;;20.30;96.50;;;;;;4128580;28;20062;-68
2022/07/05 00:31:10;;;;;;;1.40;1.30;;;20.30;96.90;;;;;;4131714;28;20034;-68
2022/07/05 00:33:11;;;;;;;2.40;1.65;;;20.20;97.10;;;;;;4132372;28;20057;-68
2022/07/05 00:35:12;;;;;;;1.90;1.38;;;20.20;96.90;;;;;;4131721;28;20054;-69
2022/07/05 00:37:12;;;;;;;1.95;1.08;;;20.20;96.40;;;;;;4132237;28;20037;-68
2022/07/05 00:39:13;;;;;;;1.77;1.38;;;20.20;96.60;;;;;;4129385;28;20051;-68
2022/07/05 00:41:14;;;;;;;5.28;1.55;;;20.20;96.60;;;;;;4131556;28;20050;-68
2022/07/05 00:43:14;;;;;;;1.42;1.33;;;20.20;96.40;;;;;;4132411;28;20054;-67
2022/07/05 00:45:15;;;;;;;3.58;1.70;;;20.20;96.20;;;;;;4131527;28;20104;-67
2022/07/05 00:47:16;;;;;;;2.53;1.40;;;20.20;96.00;;;;;;4132387;28;20039;-68
2022/07/05 00:49:16;;;;;;;2.08;1.40;;;20.20;96.00;;;;;;4131418;28;20030;-68
2022/07/05 00:51:17;;;;;;;3.05;1.60;;;20.20;96.00;;;;;;4131622;28;20437;-68
2022/07/05 00:53:18;;;;;;;2.17;1.58;;;20.20;95.60;;;;;;4131942;28;20382;-68
2022/07/05 00:55:19;;;;;;;3.78;1.23;;;20.20;95.70;;;;;;4131538;28;20030;-67
2022/07/05 00:57:21;;;;;;;5.53;2.22;;;20.20;96.40;;;;;;4132153;28;20042;-67
2022/07/05 00:59:22;;;;;;;2.20;1.80;;;20.20;98.30;;;;;;4130499;28;20112;-68
2022/07/05 01:01:25;;;;;;;2.00;1.73;;;20.20;97.30;;;;;;4131445;28;20038;-68
2022/07/05 01:03:27;;;;;;;2.35;1.50;;;20.10;96.70;;;;;;4132245;28;20044;-68
2022/07/05 01:05:29;;;;;;;2.40;1.70;;;20.10;96.80;;;;;;4146152;28;20048;-68
2022/07/05 01:07:29;;;;;;;2.50;1.52;;;20.10;96.90;;;;;;4132039;28;20042;-68
2022/07/05 01:09:30;;;;;;;4.57;2.00;;;20.10;97.00;;;;;;4131041;28;20034;-68
2022/07/05 01:11:30;;;;;;;2.35;1.85;;;20.10;98.20;;;;;;4131383;28;20039;-68
2022/07/05 01:13:31;;;;;;;2.15;1.50;;;20.00;97.60;;;;;;4131847;28;20044;-68
2022/07/05 01:15:32;;;;;;;2.92;1.75;;;20.00;97.60;;;;;;4131506;28;20084;-68
2022/07/05 01:17:37;;;;;;;4.43;1.95;;;20.00;97.80;;;;;;4139991;28;20172;-68
2022/07/05 01:19:38;;;;;;;4.05;1.50;;;20.00;98.00;;;;;;4137837;28;20093;-68
2022/07/05 01:21:44;;;;;;;2.15;1.60;;;19.90;98.00;;;;;;4129265;28;20125;-68
2022/07/05 01:23:45;;;;;;;1.85;1.52;;;20.00;98.00;;;;;;4131582;28;20466;-68
2022/07/05 01:25:49;;;;;;;2.35;1.83;;;19.90;98.00;;;;;;4130989;28;20492;-68
2022/07/05 01:27:51;;;;;;;2.50;1.60;;;19.90;98.50;;;;;;4131446;28;20031;-68
2022/07/05 01:29:51;;;;;;;1.70;1.60;;;19.90;98.40;;;;;;4130800;28;20209;-68
2022/07/05 01:31:52;;;;;;;3.10;2.00;;;19.90;99.30;;;;;;4130805;28;20030;-68
2022/07/05 01:33:53;;;;;;;2.45;1.70;;;19.90;98.60;;;;;;4131671;28;20042;-68
2022/07/05 01:35:54;;;;;;;2.50;1.60;;;19.90;98.90;;;;;;4131011;28;20443;-68
2022/07/05 01:37:54;;;;;;;1.70;1.50;;;20.00;98.60;;;;;;4131291;28;20022;-68
2022/07/05 01:39:56;;;;;;;3.15;1.70;;;20.00;98.30;;;;;;4130610;28;20042;-68
2022/07/05 01:41:56;;;;;;;2.08;1.40;;;19.90;98.40;;;;;;4130377;28;20038;-68
2022/07/05 01:43:58;;;;;;;1.98;1.35;;;20.00;98.40;;;;;;4130842;28;20161;-68
2022/07/05 01:46:03;;;;;;;2.10;1.75;;;20.00;98.40;;;;;;4130643;28;20441;-68
2022/07/05 01:48:18;;;;;;;2.00;1.20;;;20.00;98.80;;;;;;4130776;28;20398;-68
2022/07/05 01:50:21;;;;;;;1.50;1.23;;;20.00;98.90;;;;;;4129475;28;20121;-68
2022/07/05 01:52:24;;;;;;;3.58;1.33;;;20.00;98.40;;;;;;4131037;28;20092;-68
2022/07/05 01:54:25;;;;;;;1.70;1.38;;;20.00;98.40;;;;;;4131395;28;20038;-68
2022/07/05 01:56:25;;;;;;;2.55;1.48;;;19.90;99.00;;;;;;4130665;28;20042;-68
2022/07/05 01:58:27;;;;;;;2.35;1.27;;;19.90;99.20;;;;;;4131100;28;20117;-68
2022/07/05 02:00:27;;;;;;;2.30;1.60;;;19.90;98.50;;;;;;4129891;28;20065;-68
2022/07/05 02:02:28;;;;;;;2.53;1.80;;;19.90;98.60;;;;;;4131172;28;20039;-68
2022/07/05 02:04:29;;;;;;;3.65;1.60;;;19.80;99.50;;;;;;4130882;28;20035;-68
2022/07/05 02:06:32;;;;;;;4.55;1.42;;;19.80;99.00;;;;;;4130583;28;20064;-68
2022/07/05 02:08:32;;;;;;;1.17;1.08;;;19.80;98.60;;;;;;4130698;28;20030;-68
2022/07/05 02:10:35;;;;;;;1.20;1.10;;;19.80;98.40;;;;;;4125619;28;20049;-68
2022/07/05 02:12:36;;;;;;;;;;;19.70;98.40;;;;;;4131574;28;20379;-68
2022/07/05 02:14:36;;;;;;;2.15;1.17;;;19.60;98.10;;;;;;4130469;28;19917;-68
2022/07/05 02:16:37;;;;;;;1.63;1.25;;;19.60;98.30;;;;;;4130197;28;20387;-68
2022/07/05 02:18:37;;;;;;;1.40;1.30;;;19.50;98.70;;;;;;4129467;28;20034;-68
2022/07/05 02:20:40;;;;;;;4.00;1.60;;;19.50;99.20;;;;;;4128968;28;20118;-68
2022/07/05 02:22:40;;;;;;;1.58;1.25;;;19.50;99.40;;;;;;4131003;28;20451;-68
2022/07/05 02:24:41;;;;;;;1.40;1.02;;;19.50;99.20;;;;;;4130718;28;20161;-68
2022/07/05 02:26:41;;;;;;;1.35;1.10;;;19.50;99.30;;;;;;4130137;28;20041;-68
2022/07/05 02:28:42;;;;;;;1.75;1.05;;;19.50;99.40;;;;;;4128474;28;20544;-68
2022/07/05 02:30:43;;;;;;;1.60;1.30;;;19.50;99.20;;;;;;4129691;28;20093;-68
2022/07/05 02:32:44;;;;;;;3.45;1.33;;;19.50;99.40;;;;;;4130627;28;20034;-68
2022/07/05 02:34:44;;;;;;;2.25;1.30;;;19.50;99.20;;;;;;4130669;28;20034;-68
2022/07/05 02:36:45;;;;;;;1.98;1.35;;;19.50;98.60;;;;;;4129927;28;20037;-68
2022/07/05 02:38:45;;;;;;;1.83;1.15;;;19.40;98.40;;;;;;4130004;28;20034;-68
2022/07/05 02:40:46;;;;;;;1.65;1.38;;;19.40;98.90;;;;;;4129837;28;20042;-68
2022/07/05 02:42:46;;;;;;;2.63;1.50;;;19.40;99.40;;;;;;4130606;28;20057;-68
2022/07/05 02:44:47;;;;;;;1.60;1.00;;;19.40;99.40;;;;;;4130403;28;20068;-68
2022/07/05 02:46:47;;;;;;;1.38;1.20;;;19.40;99.90;;;;;;4129772;28;20031;-68
2022/07/05 02:48:50;;;;;;;2.80;1.25;;;19.40;99.90;;;;;;4128210;28;20601;-67
2022/07/05 02:50:51;;;;;;;2.55;1.67;;;19.40;99.90;;;;;;4128971;28;20030;-67
2022/07/05 02:52:51;;;;;;;1.58;1.05;;;19.40;99.90;;;;;;4130424;28;20093;-68
2022/07/05 02:54:52;;;;;;;1.30;1.00;;;19.30;99.90;;;;;;4129927;28;20034;-68
2022/07/05 02:56:52;;;;;;;2.67;1.20;;;19.30;99.20;;;;;;4129429;28;20129;-67
2022/07/05 02:58:53;;;;;;;2.22;1.45;;;19.30;99.30;;;;;;4127212;28;20035;-67
2022/07/05 03:00:53;;;;;;;1.92;1.27;;;19.20;99.30;;;;;;4129419;28;20049;-68
2022/07/05 03:02:54;;;;;;;2.50;1.38;;;19.20;99.90;;;;;;4130225;28;20187;-68
2022/07/05 03:04:55;;;;;;;1.52;1.42;;;19.20;99.90;;;;;;4130302;28;20034;-67
2022/07/05 03:06:55;;;;;;;1.38;1.20;;;19.10;99.90;;;;;;4129526;28;20034;-68
2022/07/05 03:08:56;;;;;;;2.95;1.30;;;19.10;99.90;;;;;;4129445;28;20355;-68
2022/07/05 03:10:57;;;;;;;3.42;1.20;;;19.10;99.90;;;;;;4129202;28;20045;-68
2022/07/05 03:12:57;;;;;;;2.10;1.25;;;19.10;99.90;;;;;;4129846;28;20077;-68
2022/07/05 03:14:58;;;;;;;2.67;1.35;;;19.10;99.90;;;;;;4129812;28;20113;-68
2022/07/05 03:16:58;;;;;;;1.80;1.38;;;19.10;99.90;;;;;;4129561;28;20397;-68
2022/07/05 03:18:59;;;;;;;3.17;1.30;;;19.10;99.90;;;;;;4129310;28;20534;-68
2022/07/05 03:20:59;;;;;;;1.38;1.13;;;19.00;99.90;;;;;;4128892;28;20093;-68
2022/07/05 03:23:00;;;;;;;1.67;1.13;;;19.00;99.80;;;;;;4129710;28;20054;-68
2022/07/05 03:25:01;;;;;;;2.08;1.27;;;19.00;99.80;;;;;;4129573;28;20034;-68
2022/07/05 03:27:01;;;;;;;1.45;1.15;;;19.00;99.80;;;;;;4129026;28;20034;-68
2022/07/05 03:29:02;;;;;;;1.38;1.20;;;19.00;99.80;;;;;;4126828;28;20034;-68
2022/07/05 03:31:03;;;;;;;4.60;1.52;;;18.90;99.90;;;;;;4129118;28;20034;-68
2022/07/05 03:33:03;;;;;;;1.90;1.58;;;18.90;99.70;;;;;;4129962;28;20065;-68
2022/07/05 03:35:04;;;;;;;1.90;1.35;;;18.90;99.90;;;;;;4129406;28;20081;-69
2022/07/05 03:37:05;;;;;;;2.65;1.30;;;18.90;99.80;;;;;;4129517;28;20054;-68
2022/07/05 03:39:06;;;;;;;2.90;1.35;;;18.80;99.90;;;;;;4128906;28;20034;-67
2022/07/05 03:41:06;;;;;;;4.53;1.08;;;18.80;99.90;;;;;;4128962;28;20053;-67
2022/07/05 03:43:07;;;;;;;1.98;1.30;;;18.80;99.10;;;;;;4129688;28;20096;-67
2022/07/05 03:45:08;;;;;;;2.35;1.55;;;18.70;98.90;;;;;;4128993;28;20050;-68
2022/07/05 03:47:08;;;;;;;2.15;1.40;;;18.70;99.30;;;;;;4129352;28;20101;-67
2022/07/05 03:49:10;;;;;;;2.22;1.38;;;18.70;99.70;;;;;;4128834;28;20056;-67
2022/07/05 03:51:11;;;;;;;4.53;1.52;;;18.70;99.90;;;;;;4128566;28;20050;-67
2022/07/05 03:53:12;;;;;;;1.77;1.42;;;18.70;99.90;;;;;;4129337;28;20041;-67
2022/07/05 03:55:12;;;;;;;1.55;1.30;;;18.60;99.90;;;;;;4128625;28;20033;-68
2022/07/05 03:57:13;;;;;;;1.45;1.35;;;18.60;99.90;;;;;;4129267;28;20026;-67
2022/07/05 03:59:14;;;;;;;1.77;1.38;;;18.60;99.90;;;;;;4128240;28;20033;-67
2022/07/05 04:01:15;;;;;;;2.85;1.50;;;18.50;99.90;;;;;;4128244;28;20038;-67
2022/07/05 04:03:15;;;;;;;2.35;1.35;;;18.50;99.90;;;;;;4129052;28;20034;-67
2022/07/05 04:05:16;;;;;;;1.60;1.30;;;18.50;99.90;;;;;;4128805;28;20040;-68
2022/07/05 04:07:17;;;;;;;2.80;1.75;;;18.50;99.90;;;;;;4129204;28;20030;-67
2022/07/05 04:09:17;;;;;;;2.45;1.40;;;18.50;99.90;;;;;;4127073;28;20478;-67
2022/07/05 04:11:18;;;;;;;1.23;1.13;;;18.60;99.90;;;;;;4128966;28;20035;-67
2022/07/05 04:13:18;;;;;;;2.30;1.13;;;18.60;99.90;;;;;;4129443;28;20038;-67
2022/07/05 04:15:19;;;;;;;2.92;1.40;;;18.50;99.90;;;;;;4128637;28;20039;-68
2022/07/05 04:17:19;;;;;;;3.92;1.58;;;18.50;99.90;;;;;;4127451;28;20053;-67
2022/07/05 04:19:20;;;;;;;4.63;1.50;;;18.50;99.90;;;;;;4128046;28;20126;-67
2022/07/05 04:21:21;;;;;;;5.35;1.60;;;18.50;99.90;;;;;;4141558;28;20034;-66
2022/07/05 04:23:21;;;;;;;3.38;1.63;;;18.50;99.90;;;;;;4129525;28;20116;-67
2022/07/05 04:25:22;;;;;;;2.70;1.60;;;18.50;99.90;;;;;;4128274;28;20030;-67
2022/07/05 04:27:23;;;;;;;2.45;1.55;;;18.50;99.90;;;;;;4129605;28;20049;-66
2022/07/05 04:29:23;;;;;;;2.92;1.40;;;18.50;99.90;;;;;;4129089;28;20038;-67
2022/07/05 04:31:24;;;;;;;3.28;1.67;;;18.50;99.90;;;;;;4128693;28;20122;-67
2022/07/05 04:33:25;;;;;;;2.97;1.67;;;18.50;99.90;;;;;;4129361;28;20039;-67
2022/07/05 04:35:26;;;;;;;1.77;1.45;;;18.50;99.90;;;;;;4128565;28;20066;-67
2022/07/05 04:37:27;;;;;;;2.60;1.45;;;18.50;99.90;;;;;;4128980;28;20031;-67
2022/07/05 04:39:27;;;;;;;4.13;1.75;;;18.50;99.90;;;;;;4128690;28;20046;-67
2022/07/05 04:41:28;;;;;;;4.13;2.13;;;18.40;99.90;;;;;;4128300;28;20038;-67
2022/07/05 04:43:29;;;;;;;2.40;1.60;;;18.40;99.90;;;;;;4128795;28;20390;-66
2022/07/05 04:45:29;;;;;;;5.57;1.52;;;18.50;99.90;;;;;;4128431;28;20041;-67
2022/07/05 04:47:30;;;;;;;1.88;1.40;;;18.40;99.90;;;;;;4128855;28;20030;-67
2022/07/05 04:49:31;;;;;;;4.82;2.13;;;18.40;99.90;;;;;;4122521;28;20027;-67
2022/07/05 04:51:31;;;;;;;2.45;1.70;;;18.50;99.90;;;;;;4128463;28;20026;-67
2022/07/05 04:53:32;;;;;;;2.03;1.70;;;18.50;99.90;;;;;;4128650;28;20125;-67
2022/07/05 04:55:32;;;;;;;1.92;1.50;;;18.50;99.90;;;;;;4128486;28;20088;-67
2022/07/05 04:57:40;;;;;;;2.17;1.70;;;18.50;99.90;;;;;;4128900;28;20035;-67
2022/07/05 04:59:41;;;;;;;2.92;1.75;;;18.60;99.90;;;;;;4126427;28;20038;-67
2022/07/05 05:01:41;;;;;;;3.83;1.77;;;18.60;99.90;;;;;;4129819;28;20472;-67
2022/07/05 05:03:42;;;;;;;2.45;1.80;;;18.60;99.90;;;;;;4130230;28;20034;-67
2022/07/05 05:05:42;;;;;;;5.50;2.22;;;18.60;99.90;;;;;;4128458;28;20508;-67
2022/07/05 05:07:43;;;;;;;3.20;2.15;;;18.70;99.90;;;;;;4125345;28;20474;-67
2022/07/05 05:09:44;;;;;;;3.67;1.70;;;18.60;99.90;;;;;;4124059;28;20069;-68
2022/07/05 05:11:44;;;;;;;2.70;1.63;;;18.70;99.90;;;;;;4128118;28;20038;-67
2022/07/05 05:13:46;;;;;;;2.38;1.63;;;18.70;99.90;;;;;;4128956;28;20513;-67
2022/07/05 05:15:47;;;;;;;2.58;1.38;;;18.80;99.90;;;;;;4131565;28;20034;-67
2022/07/05 05:17:47;;;;;;;3.70;1.95;;;18.80;99.90;;;;;;4131586;28;20038;-67
2022/07/05 05:19:48;;;;;;;3.47;2.03;;;18.80;99.90;;;;;;4129099;28;20089;-68
2022/07/05 05:21:48;;;;;;;3.05;1.90;;;18.80;99.90;;;;;;4130332;28;20122;-68
2022/07/05 05:23:49;;;;;;;3.50;1.90;;;18.90;99.90;;;;;;4123334;28;20034;-72
2022/07/05 05:25:50;;;;;;;1.88;1.38;;;18.90;99.90;;;;;;4130450;28;20112;-72
2022/07/05 05:27:51;;;;;;;2.70;1.90;;;19.00;99.90;;;;;;4117513;28;20496;-70
2022/07/05 05:29:52;;;;;;;3.55;1.90;;;19.10;99.90;;;;;;4137173;28;20101;-71
2022/07/05 05:31:53;;;;;;;3.60;2.38;;;19.20;99.90;;;;;;4130625;28;20041;-71
2022/07/05 05:33:54;;;;;;;4.10;1.77;;;19.20;99.90;;;;;;4131458;28;20410;-71
2022/07/05 05:35:54;;;;;;;1.90;1.52;;;19.20;99.90;;;;;;4131125;28;20027;-71
2022/07/05 05:37:55;;;;;;;2.58;1.75;;;19.30;99.90;;;;;;4131405;28;20085;-71
2022/07/05 05:39:56;;;;;;;1.65;1.55;;;19.30;99.90;;;;;;4130823;28;20034;-71
2022/07/05 05:41:56;;;;;;;2.72;1.70;;;19.30;99.90;;;;;;4131224;28;20039;-72
2022/07/05 05:43:57;;;;;;;2.42;1.60;;;19.40;99.90;;;;;;4131055;28;20043;-72
2022/07/05 05:45:57;;;;;;;1.85;1.33;;;19.40;99.90;;;;;;4121514;28;20386;-71
2022/07/05 05:47:59;;;;;;;3.20;1.60;;;19.40;99.90;;;;;;4115779;28;20127;-72
2022/07/05 05:50:00;;;;;;;2.80;1.50;;;19.40;99.90;;;;;;4130090;28;20031;-71
2022/07/05 05:52:00;;;;;;;2.25;1.50;;;19.50;99.90;;;;;;4130825;28;20545;-72
2022/07/05 05:54:01;;;;;;;2.35;1.48;;;19.60;99.90;;;;;;4130879;28;20100;-72
2022/07/05 05:56:02;;;;;;;1.88;1.42;;;19.70;99.90;;;;;;4130844;28;20034;-72
2022/07/05 05:58:14;;;;;;;2.28;1.55;;;19.90;99.90;;;;;;4131110;28;20035;-72
2022/07/05 06:00:16;;;;;;;5.10;1.63;;;20.30;99.90;;;;;;4127849;28;20035;-72
2022/07/05 06:02:16;;;;;;;2.45;1.58;;;20.70;99.90;;;;;;4131181;28;20387;-72
2022/07/05 06:04:17;;;;;;;1.98;1.50;;;21.10;99.90;;;;;;4139865;28;20041;-72
2022/07/05 06:06:17;;;;;;;2.28;1.63;;;21.40;99.90;;;;;;4140170;28;20046;-72
2022/07/05 06:08:18;;;;;;;1.67;1.40;;;21.70;99.90;;;;;;4130850;28;20398;-72
2022/07/05 06:10:25;;;;;;;2.28;1.40;;;21.90;99.40;;;;;;4129094;28;20034;-73
2022/07/05 06:12:25;;;;;;;3.30;1.50;;;22.10;98.70;;;;;;4130432;28;20039;-72
2022/07/05 06:14:26;;;;;;;4.30;1.50;;;22.30;99.90;;;;;;4124861;28;20089;-72
2022/07/05 06:16:26;;;;;;;2.65;1.67;;;22.50;99.90;;;;;;4130239;28;20042;-72
2022/07/05 06:18:27;;;;;;;3.35;2.05;;;22.80;98.70;;;;;;4130661;28;20045;-73
2022/07/05 06:20:30;;;;;;;2.03;1.30;;;23.10;97.20;;;;;;4128530;28;20034;-72
2022/07/05 06:22:31;;;;;;;3.97;1.65;;;23.40;95.20;;;;;;4130846;28;20085;-72
2022/07/05 06:24:31;;;;;;;3.75;1.58;;;23.50;95.00;;;;;;4130508;28;20034;-72
2022/07/05 06:26:32;;;;;;;1.65;1.17;;;23.80;95.80;;;;;;4129171;28;20034;-73
2022/07/05 06:28:33;;;;;;;3.15;1.38;;;24.00;94.60;;;;;;4129828;28;20030;-73
2022/07/05 06:30:36;;;;;;;2.40;1.27;;;24.10;93.30;;;;;;4129085;28;20053;-72
2022/07/05 06:32:37;;;;;;;1.52;1.40;;;24.30;93.50;;;;;;4130602;28;20027;-72
2022/07/05 06:34:37;;;;;;;2.28;1.30;;;24.30;93.30;;;;;;4119784;28;20367;-72
2022/07/05 06:36:38;;;;;;;3.75;1.80;;;24.30;93.00;;;;;;4137775;28;20030;-72
2022/07/05 06:38:38;;;;;;;2.05;1.55;;;24.20;93.70;;;;;;4129763;28;20030;-73
2022/07/05 06:40:42;;;;;;;7.93;2.50;;;24.20;92.30;;;;;;4129462;28;20096;-72
2022/07/05 06:42:42;;;;;;;3.22;1.35;;;24.00;94.20;;;;;;4130020;28;20041;-73
2022/07/05 06:44:43;;;;;;;3.17;1.58;;;23.90;93.30;;;;;;4124897;28;20038;-73
2022/07/05 06:46:44;;;;;;;2.83;1.40;;;23.90;93.80;;;;;;4130605;28;20038;-73
2022/07/05 06:48:44;;;;;;;1.40;1.20;;;23.80;94.30;;;;;;4114000;28;20038;-73
2022/07/05 06:50:45;;;;;;;2.40;1.10;;;23.80;93.20;;;;;;4127350;28;20165;-73
2022/07/05 06:52:45;;;;;;;2.10;0.90;;;23.80;93.10;;;;;;4129737;28;20027;-72
2022/07/05 06:54:46;;;;;;;1.70;1.15;;;23.70;94.10;;;;;;4134776;28;20109;-72
2022/07/05 06:56:47;;;;;;;2.10;1.20;;;23.70;94.10;;;;;;4143636;28;20030;-72
2022/07/05 06:58:47;;;;;;;2.03;1.23;;;23.60;93.20;;;;;;4126592;28;20133;-73
2022/07/05 07:00:48;;;;;;;2.22;1.20;;;23.60;94.20;;;;;;4123453;28;20121;-73
2022/07/05 07:02:48;;;;;;;2.25;1.20;;;23.60;94.40;;;;;;4114040;28;20027;-73
2022/07/05 07:04:49;;;;;;;1.42;1.00;;;23.60;94.00;;;;;;4117246;28;20042;-73
2022/07/05 07:06:50;;;;;;;1.15;0.90;;;23.60;94.30;;;;;;4129315;28;20441;-72
2022/07/05 07:11:10;;;;;;;1.90;1.08;;;23.60;95.10;;;;;;4142695;28;20038;-72
2022/07/05 07:13:10;;;;;;;2.25;1.17;;;23.40;93.50;;;;;;4146263;28;20264;-73
2022/07/05 07:15:11;;;;;;;2.47;1.33;;;23.30;93.50;;;;;;4132673;28;20042;-73
2022/07/05 07:17:11;;;;;;;4.18;1.33;;;23.20;93.40;;;;;;4134124;28;20027;-72
2022/07/05 07:19:12;;;;;;;0.70;0.70;;;23.20;93.90;;;;;;4129085;28;20046;-72
2022/07/05 07:21:13;;;;;;;3.35;0.95;;;23.20;93.10;;;;;;4129236;28;20129;-72
2022/07/05 07:23:16;;;;;;;1.27;0.70;;;23.20;92.90;;;;;;4129751;28;20367;-72
2022/07/05 07:25:20;;;;;;;1.02;0.75;;;23.20;92.80;;;;;;4115929;28;20034;-73
2022/07/05 07:27:20;;;;;;;2.80;0.70;;;23.20;92.50;;;;;;4145601;28;20037;-72
2022/07/05 07:29:21;;;;;;;1.45;0.70;;;23.20;91.60;;;;;;4137006;28;20058;-71
2022/07/05 07:31:21;;;;;;;2.22;0.70;;;23.20;92.20;;;;;;4129016;28;20118;-72
2022/07/05 07:33:22;;;;;;;1.30;0.70;;;23.20;90.90;;;;;;4111993;28;20114;-70
2022/07/05 07:35:23;;;;;;;2.90;1.02;;;23.20;90.60;;;;;;4128703;28;20177;-72
2022/07/05 07:37:23;;;;;;;3.80;0.80;;;23.20;92.90;;;;;;4128896;28;20048;-72
2022/07/05 07:39:26;;;;;;;2.17;1.00;;;23.20;91.90;;;;;;4107419;28;20038;-73
2022/07/05 07:41:26;;;;;;;2.65;1.02;;;23.20;91.80;;;;;;4118301;28;20490;-73
2022/07/05 07:43:27;;;;;;;3.83;1.20;;;23.20;92.00;;;;;;4113379;28;20045;-73
2022/07/05 07:45:30;;;;;;;1.50;1.10;;;23.10;91.10;;;;;;4114835;28;20054;-73
2022/07/05 07:47:35;;;;;;;1.10;0.93;;;23.20;91.60;;;;;;4129300;28;20033;-73
2022/07/05 07:49:36;;;;;;;2.05;0.90;;;23.20;91.30;;;;;;4126781;28;20517;-73
2022/07/05 07:51:37;;;;;;;2.05;1.15;;;23.20;91.90;;;;;;4128745;28;20034;-73
2022/07/05 07:53:37;;;;;;;3.95;1.55;;;23.20;91.90;;;;;;4129258;28;20138;-73
2022/07/05 07:55:38;;;;;;;1.17;0.80;;;23.30;93.30;;;;;;4128324;28;20031;-73
2022/07/05 07:57:39;;;;;;;2.72;1.20;;;23.30;91.30;;;;;;4129150;28;20076;-73
2022/07/05 07:59:39;;;;;;;2.50;1.30;;;23.30;91.10;;;;;;4128570;28;20041;-73
2022/07/05 08:01:40;;;;;;;1.45;0.88;;;23.30;91.70;;;;;;4117379;28;20109;-73
2022/07/05 08:03:42;;;;;;;0.90;0.70;;;23.30;89.70;;;;;;4129254;28;20050;-73
2022/07/05 08:05:42;;;;;;;1.48;0.73;;;23.30;88.60;;;;;;4127144;28;20038;-73
2022/07/05 08:07:43;;;;;;;2.30;0.90;;;23.30;90.00;;;;;;4113727;28;20189;-73
2022/07/05 08:09:43;;;;;;;0.77;0.50;;;23.30;88.80;;;;;;4121277;28;20053;-73
2022/07/05 08:11:46;;;;;;;2.58;0.88;;;23.20;88.40;;;;;;4128670;28;20117;-73
2022/07/05 08:13:47;;;;;;;;;;;23.30;90.20;;;;;;4129506;28;20034;-73
2022/07/05 08:15:48;;;;;;;2.17;0.75;;;23.30;88.60;;;;;;4128747;28;19960;-73
2022/07/05 08:22:29;;;;;;;1.90;0.85;;;23.30;88.70;;;;;;4128635;28;20049;-73
2022/07/05 08:24:30;;;;;;;2.00;1.08;;;23.30;87.00;;;;;;4128992;28;20037;-73
2022/07/05 08:26:30;;;;;;;2.20;1.08;;;23.30;90.40;;;;;;4126135;28;20117;-73
2022/07/05 08:28:31;;;;;;;1.20;0.73;;;23.40;90.30;;;;;;4118113;28;20026;-73
2022/07/05 08:30:32;;;;;;;1.67;0.93;;;23.40;90.70;;;;;;4120018;28;20466;-73
2022/07/05 08:32:32;;;;;;;3.28;1.40;;;23.40;90.50;;;;;;4129528;28;20031;-73
2022/07/05 08:34:33;;;;;;;1.38;1.00;;;23.40;91.30;;;;;;4128955;28;20026;-73
2022/07/05 08:36:34;;;;;;;2.08;1.13;;;23.40;90.90;;;;;;4114612;28;20162;-73
2022/07/05 08:38:35;;;;;;;1.30;0.95;;;23.40;90.50;;;;;;4144322;28;20026;-73
2022/07/05 08:40:39;;;;;;;0.98;0.80;;;23.50;90.80;;;;;;4128301;28;20474;-73
2022/07/05 08:42:40;;;;;;;1.85;0.90;;;23.60;90.80;;;;;;4129221;28;20027;-73
2022/07/05 08:44:43;;;;;;;1.60;1.05;;;23.60;87.20;;;;;;4129045;28;20043;-73
2022/07/05 08:46:44;;;;;;;0.82;0.70;;;23.60;84.30;;;;;;4128358;28;20388;-73
2022/07/05 08:48:48;;;;;;;1.55;0.90;;;23.70;90.10;;;;;;4126401;28;20031;-73
2022/07/05 08:50:51;;;;;;;2.40;0.80;;;23.80;89.60;;;;;;4131399;28;20193;-73
2022/07/05 08:52:52;;;;;;;1.77;1.05;;;23.90;89.80;;;;;;4138369;28;20038;-73
2022/07/05 08:54:54;;;;;;;1.95;0.77;;;23.90;87.90;;;;;;4127084;28;20030;-72
2022/07/05 08:56:55;;;;;;;1.70;1.00;;;24.00;88.70;;;;;;4131465;28;20031;-73
2022/07/05 08:58:56;;;;;;;0.82;0.70;;;24.00;85.80;;;;;;4123624;28;20027;-73
2022/07/05 09:00:58;;;;;;;1.85;0.70;;;24.00;85.20;;;;;;4131430;28;20038;-73
2022/07/05 09:02:59;;;;;;;1.20;0.60;;;24.10;84.50;;;;;;4131995;28;20445;-73
2022/07/05 09:05:01;;;;;;;1.50;1.17;;;24.20;84.40;;;;;;4113704;28;20033;-73
2022/07/05 09:07:04;;;;;;;1.83;0.93;;;24.30;84.50;;;;;;4104936;28;20031;-73
2022/07/05 09:09:06;;;;;;;0.80;0.80;;;24.30;81.80;;;;;;4110969;28;20036;-73
2022/07/05 09:11:10;;;;;;;3.47;1.00;;;24.30;83.10;;;;;;4122016;28;20446;-73
2022/07/05 09:13:11;;;;;;;3.25;1.05;;;24.30;82.00;;;;;;4127108;28;20130;-73
2022/07/05 09:15:11;;;;;;;2.33;0.95;;;24.30;81.80;;;;;;4121491;28;20042;-74
2022/07/05 09:17:12;;;;;;;2.28;0.90;;;24.30;80.70;;;;;;4125787;28;20050;-73
2022/07/05 09:19:13;;;;;;;1.83;0.70;;;24.30;80.80;;;;;;4124529;28;20038;-73
2022/07/05 09:21:21;;;;;;;2.00;0.95;;;24.40;83.70;;;;;;4129630;28;20056;-73
2022/07/05 09:23:22;;;;;;;5.63;1.17;;;24.50;81.80;;;;;;4131652;28;20118;-73
2022/07/05 09:25:28;;;;;;;2.78;1.27;;;24.50;82.20;;;;;;4145934;28;20034;-74
2022/07/05 09:27:31;;;;;;;1.08;0.80;;;24.40;83.40;;;;;;4127061;28;20054;-73
2022/07/05 09:29:32;;;;;;;2.22;0.88;;;24.50;81.10;;;;;;4136620;28;20031;-73
2022/07/05 09:31:39;;;;;;;1.95;1.10;;;24.50;80.10;;;;;;4129390;28;20037;-73
2022/07/05 09:33:49;;;;;;;1.35;0.75;;;24.50;80.00;;;;;;4134908;28;20030;-73
2022/07/05 09:35:57;;;;;;;1.98;1.20;;;24.50;79.70;;;;;;4130664;28;20038;-73
2022/07/05 09:37:57;;;;;;;2.38;1.08;;;24.50;80.30;;;;;;4130208;28;20521;-73
2022/07/05 09:39:58;;;;;;;2.20;0.75;;;24.60;79.70;;;;;;4129330;28;20121;-72
2022/07/05 09:42:13;;;;;;;2.38;1.10;;;24.50;78.30;;;;;;4130366;28;20375;-73
2022/07/05 09:44:25;;;;;;;3.28;1.45;;;24.70;84.30;;;;;;4131119;28;20054;-73
2022/07/05 09:46:30;;;;;;;2.13;1.33;;;24.80;84.60;;;;;;4120798;28;20042;-72
2022/07/05 09:48:32;;;;;;;4.75;1.30;;;24.80;84.10;;;;;;4124488;28;20034;-73
2022/07/05 09:50:34;;;;;;;5.10;1.85;;;24.90;82.60;;;;;;4130005;28;20026;-73
2022/07/05 09:52:40;;;;;;;3.00;1.40;;;24.80;81.60;;;;;;4130743;28;20034;-73
2022/07/05 09:55:00;;;;;;;3.47;2.15;;;24.80;84.50;;;;;;4121239;28;20046;-73
2022/07/05 09:57:00;;;;;;;3.92;1.40;;;24.80;81.60;;;;;;4120488;28;20038;-73
2022/07/05 09:59:15;;;;;;;5.68;2.05;;;24.80;84.30;;;;;;4125594;28;20026;-73
2022/07/05 10:01:31;;;;;;;3.22;1.38;;;24.80;86.90;;;;;;4120894;28;20042;-73
2022/07/05 10:03:54;;;;;;;3.88;1.67;;;24.80;82.50;;;;;;4121080;28;20394;-73
2022/07/05 10:06:09;;;;;;;3.57;1.73;;;24.80;89.10;;;;;;4122864;28;20117;-72
2022/07/05 10:08:12;;;;;;;4.50;1.50;;;24.60;86.80;;;;;;4122846;28;20030;-73
2022/07/05 10:10:14;;;;;;;;;;;24.50;87.60;;;;;;4121091;28;20042;-74
2022/07/05 10:12:15;;;;;;;2.67;1.30;;;24.30;87.30;;;;;;4125708;28;19941;-73
2022/07/05 10:14:20;;;;;;;2.20;1.55;;;24.20;88.00;;;;;;4129851;28;20478;-73
2022/07/05 10:16:23;;;;;;;3.53;1.33;;;24.10;87.10;;;;;;4130251;28;20034;-72
2022/07/05 10:18:31;;;;;;;1.83;1.08;;;24.10;90.00;;;;;;4130685;28;20505;-73
2022/07/05 10:20:40;;;;;;;2.22;1.52;;;24.10;84.70;;;;;;4128432;28;20389;-73
2022/07/05 10:22:42;;;;;;;3.15;1.00;;;24.20;86.20;;;;;;4129639;28;20073;-72
2022/07/05 10:24:44;;;;;;;2.25;1.08;;;24.10;81.80;;;;;;4143039;28;20102;-72
2022/07/05 10:26:47;;;;;;;2.63;1.23;;;24.10;87.10;;;;;;4131271;28;20038;-73
2022/07/05 10:28:51;;;;;;;1.83;0.90;;;23.90;84.70;;;;;;4118004;28;20030;-73
2022/07/05 10:30:52;;;;;;;3.63;1.20;;;23.90;84.60;;;;;;4129779;28;20034;-72
2022/07/05 10:32:52;;;;;;;2.67;1.10;;;23.90;84.50;;;;;;4113045;28;20031;-73
2022/07/05 10:34:54;;;;;;;1.90;0.88;;;24.00;86.00;;;;;;4130590;28;20031;-73
2022/07/05 10:36:54;;;;;;;3.58;1.00;;;24.10;85.50;;;;;;4111843;28;20039;-73
2022/07/05 10:38:56;;;;;;;2.05;1.17;;;24.10;83.70;;;;;;4127741;28;20038;-72
2022/07/05 10:41:02;;;;;;;2.13;1.20;;;24.00;84.60;;;;;;4129957;28;20046;-72
2022/07/05 10:43:04;;;;;;;3.63;0.77;;;24.00;79.20;;;;;;4130422;28;20037;-72